createdAt,value
2019-04-25T00:00:52.054Z,10.02
2019-04-25T00:01:52.421Z,10.05
2019-04-25T00:02:52.033Z,10.09
2019-04-25T00:03:53.360Z,10.16
2019-04-25T00:04:52.013Z,10.16
2019-04-25T00:05:52.328Z,10.16
2019-04-25T00:06:52.185Z,10.13
2019-04-25T00:07:51.984Z,10.13
2019-04-25T00:08:53.474Z,10.13
2019-04-25T00:09:51.963Z,10.12
2019-04-25T00:10:51.957Z,10.20
2019-04-25T00:11:52.406Z,10.25
2019-04-25T00:12:51.934Z,10.20
2019-04-25T00:13:51.924Z,10.22
2019-04-25T00:14:51.915Z,10.31
2019-04-25T00:15:51.989Z,10.28
2019-04-25T00:16:51.933Z,10.31
2019-04-25T00:17:52.225Z,10.34
2019-04-25T00:18:51.875Z,10.28
2019-04-25T00:19:52.842Z,10.33
2019-04-25T00:20:52.241Z,10.22
2019-04-25T00:21:51.857Z,10.20
2019-04-25T00:22:53.365Z,10.23
2019-04-25T00:23:51.826Z,10.19
2019-04-25T00:24:52.935Z,10.19
2019-04-25T00:25:52.752Z,10.28
2019-04-25T00:26:52.532Z,10.16
2019-04-25T00:27:51.786Z,10.20
2019-04-25T00:28:52.463Z,10.23
2019-04-25T00:29:51.767Z,10.22
2019-04-25T00:30:52.329Z,10.09
2019-04-25T00:31:53.290Z,10.19
2019-04-25T00:32:51.738Z,10.23
2019-04-25T00:33:53.237Z,10.15
2019-04-25T00:34:52.075Z,10.19
2019-04-25T00:35:52.750Z,10.22
2019-04-25T00:36:51.699Z,10.15
2019-04-25T00:37:52.541Z,10.20
2019-04-25T00:38:52.328Z,10.17
2019-04-25T00:39:51.803Z,10.22
2019-04-25T00:40:52.422Z,10.12
2019-04-25T00:41:52.057Z,10.22
2019-04-25T00:42:53.442Z,10.13
2019-04-25T00:43:52.554Z,10.09
2019-04-25T00:44:52.498Z,10.15
2019-04-25T00:45:52.681Z,10.10
2019-04-25T00:46:56.551Z,10.23
2019-04-25T00:47:52.807Z,10.23
2019-04-25T00:48:52.665Z,10.17
2019-04-25T00:49:52.399Z,10.13
2019-04-25T00:50:53.511Z,10.20
2019-04-25T00:51:52.365Z,10.16
2019-04-25T00:52:52.545Z,10.16
2019-04-25T00:53:53.690Z,10.19
2019-04-25T00:54:52.620Z,10.22
2019-04-25T00:55:52.535Z,10.23
2019-04-25T00:56:52.761Z,10.22
2019-04-25T00:57:52.558Z,10.12
2019-04-25T00:58:53.131Z,10.10
2019-04-25T00:59:52.868Z,10.12
2019-04-25T01:00:53.058Z,10.19
2019-04-25T01:01:52.975Z,10.19
2019-04-25T01:02:53.356Z,10.17
2019-04-25T01:03:53.348Z,10.16
2019-04-25T01:04:52.079Z,10.16
2019-04-25T01:05:53.151Z,10.12
2019-04-25T01:06:51.998Z,10.17
2019-04-25T01:07:52.440Z,10.09
2019-04-25T01:08:54.064Z,10.10
2019-04-25T01:09:52.472Z,10.10
2019-04-25T01:10:52.262Z,10.16
2019-04-25T01:11:52.331Z,10.22
2019-04-25T01:12:52.307Z,10.20
2019-04-25T01:13:52.498Z,10.13
2019-04-25T01:14:52.824Z,10.20
2019-04-25T01:15:52.869Z,10.20
2019-04-25T01:16:52.976Z,10.26
2019-04-25T01:17:52.352Z,10.23
2019-04-25T01:18:51.288Z,10.30
2019-04-25T01:19:51.278Z,10.31
2019-04-25T01:20:51.268Z,10.22
2019-04-25T01:21:51.294Z,10.20
2019-04-25T01:22:51.393Z,10.19
2019-04-25T01:23:51.472Z,10.19
2019-04-25T01:24:51.469Z,10.23
2019-04-25T01:25:51.597Z,10.19
2019-04-25T01:26:51.682Z,10.25
2019-04-25T01:27:52.222Z,10.25
2019-04-25T01:28:51.892Z,10.17
2019-04-25T01:29:51.937Z,10.15
2019-04-25T01:30:51.921Z,10.20
2019-04-25T01:31:52.147Z,10.15
2019-04-25T01:32:51.149Z,10.13
2019-04-25T01:33:51.139Z,10.09
2019-04-25T01:34:53.852Z,10.07
2019-04-25T01:35:51.120Z,9.95
2019-04-25T01:36:51.110Z,9.84
2019-04-25T01:37:51.172Z,9.91
2019-04-25T01:38:51.124Z,9.89
2019-04-25T01:39:51.159Z,9.89
2019-04-25T01:40:51.236Z,9.95
2019-04-25T01:41:51.325Z,9.89
2019-04-25T01:42:51.562Z,9.95
2019-04-25T01:43:53.228Z,10.04
2019-04-25T01:44:51.636Z,9.89
2019-04-25T01:45:51.818Z,9.98
2019-04-25T01:46:51.841Z,10.02
2019-04-25T01:47:52.043Z,10.16
2019-04-25T01:48:50.991Z,10.16
2019-04-25T01:49:50.982Z,10.19
2019-04-25T01:50:50.972Z,10.17
2019-04-25T01:51:50.963Z,10.10
2019-04-25T01:52:50.953Z,10.02
2019-04-25T01:53:50.942Z,9.95
2019-04-25T01:54:51.033Z,9.92
2019-04-25T01:55:58.145Z,9.87
2019-04-25T01:56:50.958Z,9.84
2019-04-25T01:57:50.961Z,9.92
2019-04-25T01:58:51.147Z,9.98
2019-04-25T01:59:51.394Z,9.89
2019-04-25T02:00:52.075Z,9.91
2019-04-25T02:01:51.056Z,10.02
2019-04-25T02:02:51.146Z,10.13
2019-04-25T02:03:51.257Z,10.12
2019-04-25T02:04:51.420Z,10.34
2019-04-25T02:05:51.404Z,10.35
2019-04-25T02:06:51.472Z,10.37
2019-04-25T02:07:51.535Z,10.41
2019-04-25T02:08:50.890Z,10.41
2019-04-25T02:09:50.925Z,10.44
2019-04-25T02:10:50.885Z,10.51
2019-04-25T02:11:51.059Z,10.53
2019-04-25T02:12:51.380Z,10.57
2019-04-25T02:13:51.432Z,10.59
2019-04-25T02:14:52.679Z,10.63
2019-04-25T02:15:51.533Z,10.57
2019-04-25T02:16:50.715Z,10.63
2019-04-25T02:17:50.928Z,10.54
2019-04-25T02:18:51.019Z,10.63
2019-04-25T02:19:51.996Z,10.63
2019-04-25T02:20:52.249Z,10.64
2019-04-25T02:21:51.448Z,10.56
2019-04-25T02:22:52.136Z,10.51
2019-04-25T02:23:50.648Z,10.51
2019-04-25T02:24:50.636Z,10.56
2019-04-25T02:25:50.629Z,10.48
2019-04-25T02:26:50.617Z,10.49
2019-04-25T02:27:50.608Z,10.51
2019-04-25T02:28:50.598Z,10.48
2019-04-25T02:29:50.588Z,10.48
2019-04-25T02:30:50.580Z,10.34
2019-04-25T02:31:50.569Z,10.35
2019-04-25T02:32:50.559Z,10.20
2019-04-25T02:33:50.548Z,10.30
2019-04-25T02:34:50.542Z,10.33
2019-04-25T02:35:50.530Z,10.42
2019-04-25T02:36:50.519Z,10.41
2019-04-25T02:37:50.510Z,10.48
2019-04-25T02:38:50.500Z,10.42
2019-04-25T02:39:50.492Z,10.40
2019-04-25T02:40:50.482Z,10.40
2019-04-25T02:41:50.472Z,10.31
2019-04-25T02:42:50.463Z,10.33
2019-04-25T02:43:50.453Z,10.37
2019-04-25T02:44:50.444Z,10.44
2019-04-25T02:45:50.434Z,10.40
2019-04-25T02:46:50.423Z,10.49
2019-04-25T02:47:50.416Z,10.51
2019-04-25T02:48:50.404Z,10.46
2019-04-25T02:49:50.393Z,10.60
2019-04-25T02:50:50.384Z,10.54
2019-04-25T02:51:50.381Z,10.61
2019-04-25T02:52:50.366Z,10.68
2019-04-25T02:53:50.356Z,10.63
2019-04-25T02:54:50.343Z,10.71
2019-04-25T02:55:50.335Z,10.71
2019-04-25T02:56:50.325Z,10.71
2019-04-25T02:57:50.314Z,10.86
2019-04-25T02:58:50.307Z,10.75
2019-04-25T02:59:50.294Z,10.81
2019-04-25T03:00:59.756Z,10.84
2019-04-25T03:01:50.277Z,10.76
2019-04-25T03:02:50.264Z,10.82
2019-04-25T03:03:50.260Z,10.86
2019-04-25T03:04:50.298Z,10.79
2019-04-25T03:05:50.235Z,10.84
2019-04-25T03:06:50.229Z,10.81
2019-04-25T03:07:50.227Z,10.89
2019-04-25T03:08:50.208Z,10.94
2019-04-25T03:09:50.200Z,10.78
2019-04-25T03:10:50.186Z,10.89
2019-04-25T03:11:50.176Z,10.86
2019-04-25T03:12:50.165Z,10.89
2019-04-25T03:13:50.156Z,10.87
2019-04-25T03:14:50.146Z,10.89
2019-04-25T03:15:52.822Z,10.87
2019-04-25T03:16:50.127Z,10.87
2019-04-25T03:17:50.117Z,10.97
2019-04-25T03:18:50.107Z,11.04
2019-04-25T03:19:50.097Z,11.14
2019-04-25T03:20:50.088Z,11.02
2019-04-25T03:21:50.078Z,11.11
2019-04-25T03:22:50.077Z,11.17
2019-04-25T03:23:50.057Z,11.14
2019-04-25T03:24:50.063Z,11.17
2019-04-25T03:25:50.036Z,11.04
2019-04-25T03:26:50.028Z,11.04
2019-04-25T03:27:50.017Z,11.10
2019-04-25T03:28:50.006Z,11.15
2019-04-25T03:29:49.999Z,11.17
2019-04-25T03:30:49.988Z,11.17
2019-04-25T03:31:49.978Z,11.18
2019-04-25T03:32:51.665Z,11.17
2019-04-25T03:33:49.959Z,11.14
2019-04-25T03:34:49.947Z,11.18
2019-04-25T03:35:49.938Z,11.19
2019-04-25T03:36:49.927Z,11.15
2019-04-25T03:37:49.917Z,11.18
2019-04-25T03:38:49.908Z,11.14
2019-04-25T03:39:49.900Z,11.11
2019-04-25T03:40:49.887Z,11.02
2019-04-25T03:41:49.880Z,11.14
2019-04-25T03:42:49.868Z,11.15
2019-04-25T03:43:49.867Z,11.17
2019-04-25T03:44:49.850Z,11.17
2019-04-25T03:45:49.838Z,11.17
2019-04-25T03:46:49.829Z,11.17
2019-04-25T03:47:49.819Z,11.23
2019-04-25T03:48:49.810Z,11.25
2019-04-25T03:49:49.799Z,11.36
2019-04-25T03:50:49.789Z,11.41
2019-04-25T03:51:49.780Z,11.41
2019-04-25T03:52:49.771Z,11.36
2019-04-25T03:53:49.762Z,11.45
2019-04-25T03:54:49.750Z,11.35
2019-04-25T03:55:49.741Z,11.40
2019-04-25T03:56:53.758Z,11.36
2019-04-25T03:57:49.721Z,11.40
2019-04-25T03:58:49.711Z,11.47
2019-04-25T03:59:49.701Z,11.35
2019-04-25T04:00:49.696Z,11.36
2019-04-25T04:01:49.681Z,11.40
2019-04-25T04:02:49.673Z,11.36
2019-04-25T04:03:49.662Z,11.40
2019-04-25T04:04:49.652Z,11.41
2019-04-25T04:05:49.643Z,11.41
2019-04-25T04:06:49.633Z,11.41
2019-04-25T04:07:49.624Z,11.40
2019-04-25T04:08:49.613Z,11.37
2019-04-25T04:09:49.605Z,11.36
2019-04-25T04:10:49.595Z,11.47
2019-04-25T04:11:49.585Z,11.48
2019-04-25T04:12:49.575Z,11.45
2019-04-25T04:13:49.565Z,11.48
2019-04-25T04:14:49.556Z,11.52
2019-04-25T04:15:49.547Z,11.43
2019-04-25T04:16:49.537Z,11.44
2019-04-25T04:17:49.526Z,11.41
2019-04-25T04:18:49.517Z,11.47
2019-04-25T04:19:49.508Z,11.41
2019-04-25T04:20:49.497Z,11.33
2019-04-25T04:21:49.488Z,11.33
2019-04-25T04:22:49.478Z,11.36
2019-04-25T04:23:49.469Z,11.32
2019-04-25T04:24:49.459Z,11.41
2019-04-25T04:25:49.450Z,11.41
2019-04-25T04:26:49.440Z,11.41
2019-04-25T04:27:49.431Z,11.41
2019-04-25T04:28:49.420Z,11.36
2019-04-25T04:29:49.411Z,11.36
2019-04-25T04:30:49.404Z,11.43
2019-04-25T04:31:49.392Z,11.44
2019-04-25T04:32:49.382Z,11.36
2019-04-25T04:33:49.373Z,11.37
2019-04-25T04:34:49.364Z,11.37
2019-04-25T04:35:49.354Z,11.43
2019-04-25T04:36:49.343Z,11.36
2019-04-25T04:37:49.334Z,11.40
2019-04-25T04:38:49.378Z,11.47
2019-04-25T04:39:49.316Z,11.45
2019-04-25T04:40:49.305Z,11.41
2019-04-25T04:41:49.296Z,11.52
2019-04-25T04:42:49.286Z,11.47
2019-04-25T04:43:49.277Z,11.48
2019-04-25T04:44:49.269Z,11.47
2019-04-25T04:45:49.258Z,11.54
2019-04-25T04:46:49.248Z,11.54
2019-04-25T04:47:49.239Z,11.50
2019-04-25T04:48:49.237Z,11.55
2019-04-25T04:49:49.220Z,11.52
2019-04-25T04:50:49.214Z,11.52
2019-04-25T04:51:49.201Z,11.57
2019-04-25T04:52:49.191Z,11.62
2019-04-25T04:53:49.188Z,11.52
2019-04-25T04:54:49.172Z,11.59
2019-04-25T04:55:49.163Z,11.57
2019-04-25T04:56:49.153Z,11.65
2019-04-25T04:57:49.156Z,11.63
2019-04-25T04:58:49.136Z,11.62
2019-04-25T04:59:49.126Z,11.65
2019-04-25T05:00:49.115Z,11.66
2019-04-25T05:01:49.106Z,11.69
2019-04-25T05:02:49.097Z,11.63
2019-04-25T05:03:49.088Z,11.75
2019-04-25T05:04:49.078Z,11.73
2019-04-25T05:05:49.069Z,11.75
2019-04-25T05:06:49.062Z,11.81
2019-04-25T05:07:49.055Z,11.81
2019-04-25T05:08:49.041Z,11.83
2019-04-25T05:09:49.033Z,11.90
2019-04-25T05:10:49.023Z,11.90
2019-04-25T05:11:49.014Z,11.90
2019-04-25T05:12:49.004Z,11.94
2019-04-25T05:13:48.995Z,11.97
2019-04-25T05:14:48.987Z,12.04
2019-04-25T05:15:48.978Z,12.04
2019-04-25T05:16:49.620Z,12.02
2019-04-25T05:17:48.959Z,12.09
2019-04-25T05:18:48.950Z,12.02
2019-04-25T05:19:48.941Z,12.02
2019-04-25T05:20:48.938Z,12.07
2019-04-25T05:21:48.923Z,12.06
2019-04-25T05:22:48.914Z,12.04
2019-04-25T05:23:48.905Z,12.06
2019-04-25T05:24:48.897Z,12.10
2019-04-25T05:25:48.891Z,12.12
2019-04-25T05:26:48.878Z,12.12
2019-04-25T05:28:00.101Z,12.17
2019-04-25T05:28:48.860Z,12.10
2019-04-25T05:29:48.850Z,12.13
2019-04-25T05:30:48.842Z,12.17
2019-04-25T05:31:48.833Z,12.13
2019-04-25T05:32:48.918Z,12.13
2019-04-25T05:33:48.815Z,12.12
2019-04-25T05:34:49.369Z,12.07
2019-04-25T05:35:48.798Z,12.15
2019-04-25T05:36:48.789Z,12.04
2019-04-25T05:37:48.780Z,12.15
2019-04-25T05:38:48.772Z,12.15
2019-04-25T05:39:48.764Z,12.13
2019-04-25T05:40:48.753Z,12.10
2019-04-25T05:41:48.747Z,12.12
2019-04-25T05:42:48.736Z,12.06
2019-04-25T05:43:48.726Z,12.13
2019-04-25T05:44:48.717Z,12.06
2019-04-25T05:45:48.709Z,12.17
2019-04-25T05:46:48.702Z,12.12
2019-04-25T05:47:48.691Z,12.09
2019-04-25T05:48:48.687Z,12.07
2019-04-25T05:49:48.673Z,12.12
2019-04-25T05:50:48.667Z,12.04
2019-04-25T05:51:48.656Z,12.15
2019-04-25T05:52:48.647Z,12.03
2019-04-25T05:53:48.638Z,12.13
2019-04-25T05:54:48.629Z,12.13
2019-04-25T05:55:48.620Z,12.12
2019-04-25T05:56:48.612Z,12.17
2019-04-25T05:57:50.211Z,12.22
2019-04-25T05:58:48.594Z,12.15
2019-04-25T05:59:48.585Z,12.22
2019-04-25T06:00:48.575Z,12.22
2019-04-25T06:01:48.567Z,12.24
2019-04-25T06:02:48.557Z,12.29
2019-04-25T06:03:48.549Z,12.32
2019-04-25T06:04:48.539Z,12.35
2019-04-25T06:05:48.532Z,12.42
2019-04-25T06:06:48.523Z,12.42
2019-04-25T06:07:48.520Z,12.42
2019-04-25T06:08:48.505Z,12.55
2019-04-25T06:09:48.495Z,12.67
2019-04-25T06:10:48.487Z,12.55
2019-04-25T06:11:48.478Z,12.62
2019-04-25T06:12:48.469Z,12.75
2019-04-25T06:13:48.461Z,12.72
2019-04-25T06:14:48.452Z,12.86
2019-04-25T06:15:48.444Z,12.94
2019-04-25T06:16:48.435Z,12.94
2019-04-25T06:17:48.427Z,13.12
2019-04-25T06:18:48.419Z,13.19
2019-04-25T06:19:48.410Z,13.23
2019-04-25T06:20:48.404Z,13.22
2019-04-25T06:21:48.394Z,13.05
2019-04-25T06:22:48.385Z,13.09
2019-04-25T06:23:48.378Z,13.16
2019-04-25T06:24:48.371Z,13.15
2019-04-25T06:25:48.366Z,13.09
2019-04-25T06:26:48.354Z,13.09
2019-04-25T06:27:56.554Z,13.05
2019-04-25T06:28:52.469Z,13.11
2019-04-25T06:29:58.266Z,13.05
2019-04-25T06:30:48.320Z,13.13
2019-04-25T06:31:48.311Z,13.12
2019-04-25T06:32:48.302Z,13.09
2019-04-25T06:33:48.395Z,13.00
2019-04-25T06:34:48.287Z,13.04
2019-04-25T06:35:48.278Z,13.11
2019-04-25T06:36:48.269Z,13.11
2019-04-25T06:37:48.262Z,13.05
2019-04-25T06:38:48.254Z,13.19
2019-04-25T06:39:48.246Z,13.11
2019-04-25T06:40:48.236Z,13.15
2019-04-25T06:41:48.230Z,13.22
2019-04-25T06:42:48.221Z,13.12
2019-04-25T06:43:48.213Z,13.16
2019-04-25T06:44:48.205Z,13.15
2019-04-25T06:45:50.169Z,13.11
2019-04-25T06:46:48.189Z,13.16
2019-04-25T06:47:48.181Z,13.13
2019-04-25T06:48:48.173Z,13.19
2019-04-25T06:49:48.164Z,13.19
2019-04-25T06:50:48.159Z,13.19
2019-04-25T06:51:48.148Z,13.22
2019-04-25T06:52:48.139Z,13.18
2019-04-25T06:53:48.181Z,13.13
2019-04-25T06:54:48.123Z,13.23
2019-04-25T06:55:48.116Z,13.30
2019-04-25T06:56:48.106Z,13.27
2019-04-25T06:57:48.099Z,13.37
2019-04-25T06:58:48.091Z,13.35
2019-04-25T06:59:48.085Z,13.44
2019-04-25T07:00:58.010Z,13.50
2019-04-25T07:01:48.067Z,13.53
2019-04-25T07:02:48.059Z,13.53
2019-04-25T07:03:48.052Z,13.67
2019-04-25T07:04:48.043Z,13.70
2019-04-25T07:05:48.035Z,13.63
2019-04-25T07:06:49.477Z,13.72
2019-04-25T07:07:48.020Z,13.68
2019-04-25T07:08:48.012Z,13.67
2019-04-25T07:09:48.032Z,13.68
2019-04-25T07:10:47.997Z,13.68
2019-04-25T07:11:48.258Z,13.71
2019-04-25T07:12:47.985Z,13.74
2019-04-25T07:13:47.973Z,13.90
2019-04-25T07:14:47.966Z,13.90
2019-04-25T07:15:47.958Z,13.89
2019-04-25T07:16:47.950Z,13.93
2019-04-25T07:17:47.943Z,13.95
2019-04-25T07:18:47.936Z,14.04
2019-04-25T07:19:47.929Z,14.07
2019-04-25T07:20:47.921Z,14.22
2019-04-25T07:21:47.914Z,14.29
2019-04-25T07:22:47.908Z,14.33
2019-04-25T07:23:47.901Z,14.69
2019-04-25T07:24:47.893Z,14.79
2019-04-25T07:25:47.887Z,15.03
2019-04-25T07:26:47.882Z,15.02
2019-04-25T07:27:47.877Z,15.28
2019-04-25T07:28:47.871Z,15.57
2019-04-25T07:29:47.867Z,15.64
2019-04-25T07:30:52.274Z,15.80
2019-04-25T07:31:47.860Z,15.79
2019-04-25T07:32:47.855Z,15.75
2019-04-25T07:33:47.853Z,15.79
2019-04-25T07:34:47.850Z,15.76
2019-04-25T07:35:47.847Z,15.62
2019-04-25T07:36:47.843Z,15.62
2019-04-25T07:37:47.839Z,15.58
2019-04-25T07:38:47.836Z,15.57
2019-04-25T07:39:47.835Z,15.40
2019-04-25T07:40:47.827Z,15.27
2019-04-25T07:41:47.828Z,15.25
2019-04-25T07:42:47.820Z,15.19
2019-04-25T07:43:47.815Z,15.15
2019-04-25T07:44:52.495Z,15.06
2019-04-25T07:45:47.816Z,14.97
2019-04-25T07:46:47.801Z,15.02
2019-04-25T07:47:47.829Z,14.94
2019-04-25T07:48:47.790Z,14.96
2019-04-25T07:49:47.785Z,14.84
2019-04-25T07:50:47.780Z,14.91
2019-04-25T07:51:47.774Z,14.88
2019-04-25T07:52:47.768Z,14.84
2019-04-25T07:53:47.761Z,14.84
2019-04-25T07:54:47.756Z,14.81
2019-04-25T07:55:47.750Z,14.77
2019-04-25T07:56:47.743Z,14.82
2019-04-25T07:57:47.737Z,14.94
2019-04-25T07:58:52.135Z,14.82
2019-04-25T07:59:47.724Z,14.79
2019-04-25T08:00:47.717Z,14.84
2019-04-25T08:01:47.711Z,14.84
2019-04-25T08:02:47.705Z,14.84
2019-04-25T08:03:47.698Z,14.86
2019-04-25T08:04:47.701Z,14.72
2019-04-25T08:05:47.685Z,14.72
2019-04-25T08:06:47.679Z,14.65
2019-04-25T08:07:47.672Z,14.62
2019-04-25T08:08:47.664Z,14.63
2019-04-25T08:09:47.657Z,14.65
2019-04-25T08:10:47.651Z,14.65
2019-04-25T08:11:47.644Z,14.45
2019-04-25T08:12:47.638Z,14.55
2019-04-25T08:13:47.631Z,14.54
2019-04-25T08:14:47.623Z,14.54
2019-04-25T08:15:47.615Z,14.55
2019-04-25T08:16:47.610Z,14.53
2019-04-25T08:17:47.607Z,14.51
2019-04-25T08:18:47.594Z,14.68
2019-04-25T08:19:47.588Z,14.70
2019-04-25T08:20:47.579Z,14.94
2019-04-25T08:21:47.572Z,15.22
2019-04-25T08:22:55.676Z,15.54
2019-04-25T08:23:47.561Z,15.84
2019-04-25T08:24:47.558Z,15.83
2019-04-25T08:25:47.549Z,16.05
2019-04-25T08:26:47.543Z,16.26
2019-04-25T08:27:47.546Z,16.26
2019-04-25T08:28:54.588Z,16.35
2019-04-25T08:29:47.528Z,16.35
2019-04-25T08:30:47.523Z,16.20
2019-04-25T08:31:47.519Z,16.05
2019-04-25T08:32:47.523Z,16.26
2019-04-25T08:33:47.509Z,16.33
2019-04-25T08:34:47.504Z,16.26
2019-04-25T08:36:03.359Z,16.47
2019-04-25T08:36:47.495Z,16.66
2019-04-25T08:37:47.491Z,16.64
2019-04-25T08:38:47.487Z,16.72
2019-04-25T08:39:47.483Z,16.87
2019-04-25T08:40:47.481Z,17.11
2019-04-25T08:41:47.477Z,16.96
2019-04-25T08:42:47.473Z,16.91
2019-04-25T08:43:47.473Z,16.76
2019-04-25T08:44:47.466Z,16.65
2019-04-25T08:45:47.469Z,16.61
2019-04-25T08:46:48.766Z,16.61
2019-04-25T08:47:47.455Z,16.51
2019-04-25T08:48:47.450Z,16.43
2019-04-25T08:49:49.452Z,16.43
2019-04-25T08:50:47.444Z,16.42
2019-04-25T08:51:47.438Z,16.46
2019-04-25T08:52:47.441Z,16.50
2019-04-25T08:53:47.429Z,16.38
2019-04-25T08:54:47.788Z,16.36
2019-04-25T08:55:47.419Z,16.26
2019-04-25T08:56:47.414Z,16.08
2019-04-25T08:57:47.411Z,16.23
2019-04-25T08:58:47.405Z,16.31
2019-04-25T08:59:52.260Z,16.36
2019-04-25T09:00:58.265Z,16.38
2019-04-25T09:01:47.389Z,16.61
2019-04-25T09:02:47.385Z,16.58
2019-04-25T09:03:47.381Z,16.79
2019-04-25T09:04:47.377Z,16.74
2019-04-25T09:05:47.398Z,16.74
2019-04-25T09:06:47.366Z,16.72
2019-04-25T09:07:47.361Z,16.78
2019-04-25T09:08:47.356Z,17.08
2019-04-25T09:09:47.352Z,17.31
2019-04-25T09:10:47.348Z,17.41
2019-04-25T09:11:47.345Z,17.52
2019-04-25T09:12:47.342Z,17.83
2019-04-25T09:13:47.339Z,18.05
2019-04-25T09:14:47.339Z,18.35
2019-04-25T09:15:47.339Z,18.75
2019-04-25T09:16:47.336Z,19.02
2019-04-25T09:17:47.339Z,19.26
2019-04-25T09:18:47.339Z,19.41
2019-04-25T09:19:47.339Z,19.47
2019-04-25T09:20:47.341Z,19.64
2019-04-25T09:21:49.498Z,19.69
2019-04-25T09:22:47.352Z,19.67
2019-04-25T09:23:47.350Z,19.82
2019-04-25T09:24:47.353Z,20.10
2019-04-25T09:25:47.359Z,19.69
2019-04-25T09:26:47.361Z,19.29
2019-04-25T09:27:47.364Z,19.00
2019-04-25T09:28:47.367Z,18.86
2019-04-25T09:29:47.513Z,18.71
2019-04-25T09:30:47.375Z,18.45
2019-04-25T09:31:47.373Z,18.20
2019-04-25T09:32:47.863Z,18.19
2019-04-25T09:33:47.375Z,18.00
2019-04-25T09:34:48.053Z,17.98
2019-04-25T09:35:47.375Z,17.94
2019-04-25T09:36:47.375Z,17.95
2019-04-25T09:37:47.373Z,17.94
2019-04-25T09:38:48.566Z,18.13
2019-04-25T09:39:47.371Z,18.20
2019-04-25T09:40:47.369Z,18.26
2019-04-25T09:41:47.368Z,18.20
2019-04-25T09:42:47.368Z,18.05
2019-04-25T09:43:47.366Z,18.04
2019-04-25T09:44:47.363Z,18.10
2019-04-25T09:45:47.361Z,17.87
2019-04-25T09:46:47.797Z,17.80
2019-04-25T09:47:47.359Z,17.85
2019-04-25T09:48:47.365Z,17.59
2019-04-25T09:49:48.121Z,17.59
2019-04-25T09:50:47.762Z,17.67
2019-04-25T09:51:47.347Z,17.76
2019-04-25T09:52:48.695Z,17.83
2019-04-25T09:53:50.986Z,17.89
2019-04-25T09:54:47.337Z,17.79
2019-04-25T09:55:48.278Z,17.76
2019-04-25T09:56:47.331Z,17.76
2019-04-25T09:57:47.560Z,17.70
2019-04-25T09:58:48.531Z,17.79
2019-04-25T09:59:48.142Z,17.67
2019-04-25T10:00:47.666Z,17.76
2019-04-25T10:01:48.227Z,17.89
2019-04-25T10:02:47.309Z,17.90
2019-04-25T10:03:47.411Z,17.90
2019-04-25T10:04:48.128Z,17.92
2019-04-25T10:05:47.297Z,17.86
2019-04-25T10:06:47.595Z,17.87
2019-04-25T10:07:48.894Z,17.92
2019-04-25T10:08:47.509Z,17.92
2019-04-25T10:09:47.281Z,18.04
2019-04-25T10:10:47.278Z,18.25
2019-04-25T10:11:47.275Z,18.38
2019-04-25T10:12:47.487Z,18.40
2019-04-25T10:13:47.267Z,18.43
2019-04-25T10:14:47.941Z,18.41
2019-04-25T10:15:47.960Z,18.44
2019-04-25T10:16:47.322Z,18.40
2019-04-25T10:17:47.254Z,18.19
2019-04-25T10:18:47.633Z,17.94
2019-04-25T10:19:47.996Z,17.92
2019-04-25T10:20:47.496Z,17.97
2019-04-25T10:21:47.656Z,18.10
2019-04-25T10:22:47.236Z,18.49
2019-04-25T10:23:48.198Z,18.80
2019-04-25T10:24:59.046Z,19.47
2019-04-25T10:25:47.232Z,19.77
2019-04-25T10:26:48.124Z,20.21
2019-04-25T10:27:49.213Z,20.39
2019-04-25T10:28:47.555Z,20.51
2019-04-25T10:29:53.462Z,20.67
2019-04-25T10:30:47.234Z,20.90
2019-04-25T10:31:47.244Z,21.14
2019-04-25T10:32:48.030Z,21.66
2019-04-25T10:33:47.243Z,22.20
2019-04-25T10:34:47.248Z,22.33
2019-04-25T10:35:53.099Z,22.08
2019-04-25T10:36:47.257Z,22.13
2019-04-25T10:37:47.262Z,22.04
2019-04-25T10:39:02.158Z,21.60
2019-04-25T10:39:47.274Z,21.27
2019-04-25T10:40:47.610Z,21.33
2019-04-25T10:41:48.270Z,21.67
2019-04-25T10:42:49.241Z,21.82
2019-04-25T10:43:48.246Z,21.73
2019-04-25T10:44:48.312Z,21.69
2019-04-25T10:45:47.312Z,21.55
2019-04-25T10:46:47.613Z,21.25
2019-04-25T10:47:47.308Z,21.06
2019-04-25T10:48:48.034Z,20.87
2019-04-25T10:49:47.364Z,20.70
2019-04-25T10:50:48.438Z,20.14
2019-04-25T10:51:47.997Z,19.74
2019-04-25T10:52:48.312Z,19.45
2019-04-25T10:53:47.318Z,19.21
2019-04-25T10:54:47.946Z,18.98
2019-04-25T10:55:47.615Z,18.88
2019-04-25T10:56:48.302Z,18.80
2019-04-25T10:57:48.188Z,18.75
2019-04-25T10:58:47.982Z,18.58
2019-04-25T11:00:00.737Z,18.56
2019-04-25T11:00:47.762Z,18.55
2019-04-25T11:01:47.382Z,18.55
2019-04-25T11:02:47.500Z,18.58
2019-04-25T11:03:47.300Z,18.68
2019-04-25T11:04:48.865Z,18.73
2019-04-25T11:05:47.588Z,18.58
2019-04-25T11:06:47.293Z,18.83
2019-04-25T11:07:47.289Z,19.00
2019-04-25T11:08:47.285Z,18.98
2019-04-25T11:09:48.029Z,18.95
2019-04-25T11:10:49.007Z,19.00
2019-04-25T11:11:48.138Z,19.02
2019-04-25T11:12:47.279Z,19.16
2019-04-25T11:13:47.273Z,19.31
2019-04-25T11:14:47.271Z,19.52
2019-04-25T11:15:47.267Z,19.69
2019-04-25T11:16:48.294Z,19.70
2019-04-25T11:17:47.979Z,19.91
2019-04-25T11:18:47.615Z,20.22
2019-04-25T11:19:47.258Z,20.52
2019-04-25T11:20:47.255Z,20.80
2019-04-25T11:21:47.744Z,21.00
2019-04-25T11:22:47.286Z,21.32
2019-04-25T11:23:48.787Z,21.88
2019-04-25T11:24:47.254Z,22.00
2019-04-25T11:25:47.323Z,22.14
2019-04-25T11:26:50.144Z,22.14
2019-04-25T11:27:49.581Z,22.02
2019-04-25T11:28:47.260Z,22.06
2019-04-25T11:29:47.269Z,22.02
2019-04-25T11:30:47.265Z,21.95
2019-04-25T11:31:47.403Z,21.66
2019-04-25T11:32:47.948Z,21.64
2019-04-25T11:33:47.278Z,21.88
2019-04-25T11:34:47.358Z,21.93
2019-04-25T11:35:48.087Z,21.76
2019-04-25T11:36:47.284Z,21.30
2019-04-25T11:37:48.377Z,21.05
2019-04-25T11:38:47.403Z,21.17
2019-04-25T11:39:47.352Z,21.20
2019-04-25T11:40:49.309Z,20.99
2019-04-25T11:41:48.254Z,21.07
2019-04-25T11:42:48.230Z,21.35
2019-04-25T11:43:47.306Z,21.42
2019-04-25T11:44:47.309Z,21.48
2019-04-25T11:45:47.486Z,21.58
2019-04-25T11:46:47.317Z,21.30
2019-04-25T11:47:48.337Z,21.32
2019-04-25T11:48:48.145Z,21.30
2019-04-25T11:49:47.849Z,21.12
2019-04-25T11:50:50.341Z,20.74
2019-04-25T11:51:48.194Z,20.69
2019-04-25T11:52:47.334Z,20.75
2019-04-25T11:53:48.387Z,20.75
2019-04-25T11:54:48.125Z,20.50
2019-04-25T11:55:48.178Z,20.32
2019-04-25T11:56:47.379Z,20.02
2019-04-25T11:57:49.899Z,19.95
2019-04-25T11:58:48.094Z,19.62
2019-04-25T11:59:49.225Z,19.76
2019-04-25T12:00:47.336Z,19.77
2019-04-25T12:01:47.633Z,19.82
2019-04-25T12:02:47.555Z,19.79
2019-04-25T12:03:48.913Z,19.67
2019-04-25T12:04:47.785Z,19.95
2019-04-25T12:05:48.429Z,20.26
2019-04-25T12:06:47.622Z,20.19
2019-04-25T12:07:47.910Z,20.28
2019-04-25T12:08:47.719Z,20.13
2019-04-25T12:09:48.128Z,20.43
2019-04-25T12:10:47.886Z,20.59
2019-04-25T12:11:48.534Z,20.80
2019-04-25T12:12:47.473Z,20.87
2019-04-25T12:13:48.099Z,21.11
2019-04-25T12:14:47.612Z,21.48
2019-04-25T12:15:47.324Z,21.70
2019-04-25T12:16:49.119Z,21.46
2019-04-25T12:17:47.465Z,21.52
2019-04-25T12:18:49.211Z,21.45
2019-04-25T12:19:47.346Z,21.29
2019-04-25T12:20:47.516Z,21.25
2019-04-25T12:21:48.187Z,21.07
2019-04-25T12:22:48.233Z,21.09
2019-04-25T12:23:47.796Z,20.95
2019-04-25T12:24:47.909Z,20.72
2019-04-25T12:25:47.555Z,20.25
2019-04-25T12:26:47.805Z,20.81
2019-04-25T12:27:49.858Z,21.07
2019-04-25T12:28:47.339Z,21.45
2019-04-25T12:29:47.341Z,21.25
2019-04-25T12:30:47.476Z,21.11
2019-04-25T12:31:47.680Z,20.99
2019-04-25T12:32:47.948Z,21.11
2019-04-25T12:33:48.689Z,21.51
2019-04-25T12:34:47.470Z,21.92
2019-04-25T12:35:47.940Z,22.04
2019-04-25T12:36:47.561Z,22.00
2019-04-25T12:37:48.136Z,22.18
2019-04-25T12:38:48.313Z,22.54
2019-04-25T12:39:48.433Z,22.75
2019-04-25T12:40:48.187Z,22.94
2019-04-25T12:41:49.060Z,23.17
2019-04-25T12:42:47.870Z,23.17
2019-04-25T12:43:47.386Z,23.06
2019-04-25T12:44:48.562Z,23.50
2019-04-25T12:45:47.392Z,23.96
2019-04-25T12:46:48.455Z,24.10
2019-04-25T12:47:47.692Z,24.11
2019-04-25T12:48:47.639Z,24.42
2019-04-25T12:49:47.408Z,24.17
2019-04-25T12:50:47.912Z,23.81
2019-04-25T12:51:47.759Z,23.47
2019-04-25T12:52:48.619Z,23.77
2019-04-25T12:53:48.004Z,24.36